createdAt,value
2023-05-23T00:00:47.047Z,8.32
2023-05-23T00:03:18.106Z,9.05
2023-05-23T00:05:49.315Z,8.85
2023-05-23T00:08:36.293Z,8.50
2023-05-23T00:11:05.945Z,9.07
2023-05-23T00:13:37.384Z,9.57
2023-05-23T00:16:31.580Z,10.10
2023-05-23T00:19:00.838Z,8.45
2023-05-23T00:24:41.863Z,8.52
2023-05-23T00:27:12.278Z,8.48
2023-05-23T00:29:43.536Z,8.20
2023-05-23T00:35:15.514Z,8.20
2023-05-23T00:37:58.140Z,8.63
2023-05-23T00:40:44.597Z,7.82
2023-05-23T00:43:40.883Z,7.35
2023-05-23T00:46:14.665Z,7.20
2023-05-23T00:48:58.151Z,8.13
2023-05-23T00:51:27.637Z,8.35
2023-05-23T00:53:56.449Z,8.77
2023-05-23T00:56:24.840Z,8.85
2023-05-23T00:59:03.278Z,8.82
2023-05-23T01:01:32.704Z,8.40
2023-05-23T01:04:06.921Z,8.13
2023-05-23T01:06:48.567Z,9.38
2023-05-23T01:09:23.791Z,7.85
2023-05-23T01:15:12.324Z,7.70
2023-05-23T01:18:13.753Z,7.63
2023-05-23T01:21:18.013Z,8.30
2023-05-23T01:24:07.317Z,7.60
2023-05-23T01:27:04.516Z,8.20
2023-05-23T01:32:52.545Z,8.55
2023-05-23T01:35:50.127Z,8.07
2023-05-23T01:38:19.533Z,9.15
2023-05-23T01:40:47.558Z,8.85
2023-05-23T01:43:16.476Z,8.07
2023-05-23T01:45:48.069Z,8.27
2023-05-23T01:48:17.638Z,8.20
2023-05-23T01:50:49.824Z,8.30
2023-05-23T01:53:19.102Z,8.23
2023-05-23T01:56:04.939Z,8.25
2023-05-23T01:58:33.314Z,8.30
2023-05-23T02:01:03.771Z,8.23
2023-05-23T02:03:50.884Z,7.50
2023-05-23T02:06:20.019Z,8.23
2023-05-23T02:08:50.230Z,7.15
2023-05-23T02:11:24.104Z,7.63
2023-05-23T02:14:17.568Z,8.20
2023-05-23T02:17:18.851Z,7.60
2023-05-23T02:20:04.514Z,7.80
2023-05-23T02:22:37.565Z,8.43
2023-05-23T02:25:24.497Z,8.32
2023-05-23T02:27:54.614Z,8.02
2023-05-23T02:30:41.711Z,8.85
2023-05-23T02:33:19.234Z,8.80
2023-05-23T02:35:56.945Z,8.50
2023-05-23T02:38:40.324Z,8.68
2023-05-23T02:41:27.243Z,8.57
2023-05-23T02:44:03.401Z,9.13
2023-05-23T02:46:58.390Z,8.30
2023-05-23T02:49:32.634Z,8.20
2023-05-23T02:52:19.556Z,8.48
2023-05-23T02:54:47.909Z,8.95
2023-05-23T02:57:27.497Z,8.85
2023-05-23T02:59:56.456Z,8.65
2023-05-23T03:02:32.879Z,9.15
2023-05-23T03:05:01.299Z,8.60
2023-05-23T03:07:46.007Z,9.23
2023-05-23T03:10:20.425Z,8.25
2023-05-23T03:12:55.886Z,9.75
2023-05-23T03:15:25.274Z,8.35
2023-05-23T03:17:55.432Z,8.45
2023-05-23T03:20:24.476Z,8.70
2023-05-23T03:22:55.951Z,9.15
2023-05-23T03:25:44.825Z,8.70
2023-05-23T03:28:27.363Z,8.18
2023-05-23T03:31:00.549Z,8.95
2023-05-23T03:33:47.337Z,8.98
2023-05-23T03:36:15.665Z,8.73
2023-05-23T03:38:48.984Z,7.85
2023-05-23T03:41:25.126Z,7.70
2023-05-23T03:43:55.415Z,8.15
2023-05-23T03:46:42.574Z,7.85
2023-05-23T03:49:11.031Z,7.78
2023-05-23T03:51:39.358Z,7.55
2023-05-23T03:54:11.779Z,7.88
2023-05-23T03:56:45.661Z,8.50
2023-05-23T03:59:36.971Z,7.93
2023-05-23T04:02:12.947Z,8.60
2023-05-23T04:04:58.475Z,8.68
2023-05-23T04:07:40.092Z,8.38
2023-05-23T04:10:37.080Z,7.82
2023-05-23T04:13:14.550Z,8.02
2023-05-23T04:15:44.395Z,8.25
2023-05-23T04:18:12.860Z,7.70
2023-05-23T04:23:54.649Z,8.93
2023-05-23T04:26:25.747Z,7.57
2023-05-23T04:28:55.815Z,8.50
2023-05-23T04:31:26.231Z,8.13
2023-05-23T04:34:00.434Z,8.27
2023-05-23T04:36:33.694Z,7.60
2023-05-23T04:39:10.967Z,7.28
2023-05-23T04:41:40.088Z,7.93
2023-05-23T04:44:16.584Z,7.93
2023-05-23T04:46:46.979Z,8.38
2023-05-23T04:49:15.983Z,7.30
2023-05-23T04:51:59.355Z,7.80
2023-05-23T04:54:33.460Z,7.85
2023-05-23T04:57:28.440Z,7.85
2023-05-23T04:59:56.850Z,8.13
2023-05-23T05:02:30.490Z,7.60
2023-05-23T05:05:05.950Z,7.00
2023-05-23T05:07:38.723Z,8.00
2023-05-23T05:10:19.960Z,7.53
2023-05-23T05:13:03.779Z,7.63
2023-05-23T05:15:38.775Z,8.35
2023-05-23T05:18:16.366Z,7.50
2023-05-23T05:21:17.596Z,7.43
2023-05-23T05:23:50.107Z,8.10
2023-05-23T05:26:20.394Z,8.35
2023-05-23T05:28:55.636Z,7.95
2023-05-23T05:31:26.947Z,7.53
2023-05-23T05:36:49.494Z,7.50
2023-05-23T05:39:19.240Z,7.43
2023-05-23T05:41:47.509Z,7.22
2023-05-23T05:44:39.950Z,7.35
2023-05-23T05:47:16.612Z,7.40
2023-05-23T05:50:04.917Z,7.47
2023-05-23T05:52:36.313Z,7.13
2023-05-23T05:57:43.653Z,7.05
2023-05-23T06:00:43.775Z,7.63
2023-05-23T06:03:26.217Z,7.25
2023-05-23T06:05:54.592Z,7.25
2023-05-23T06:08:31.768Z,7.38
2023-05-23T06:11:04.040Z,7.40
2023-05-23T06:13:43.508Z,6.88
2023-05-23T06:16:12.813Z,7.30
2023-05-23T06:18:46.745Z,6.82
2023-05-23T06:21:17.957Z,7.40
2023-05-23T06:23:48.280Z,7.18
2023-05-23T06:26:16.658Z,7.72
2023-05-23T06:28:46.005Z,8.05
2023-05-23T06:31:34.121Z,7.63
2023-05-23T06:34:09.654Z,8.07
2023-05-23T06:36:50.506Z,7.65
2023-05-23T06:42:51.701Z,8.30
2023-05-23T06:45:21.087Z,8.13
2023-05-23T06:47:56.451Z,7.60
2023-05-23T06:50:31.805Z,8.23
2023-05-23T06:53:08.516Z,9.00
2023-05-23T06:55:36.549Z,9.15
2023-05-23T06:58:09.239Z,8.25
2023-05-23T07:00:40.164Z,8.77
2023-05-23T07:03:12.703Z,10.20
2023-05-23T07:05:54.051Z,9.55
2023-05-23T07:11:08.412Z,9.30
2023-05-23T07:13:38.918Z,9.75
2023-05-23T07:16:08.636Z,9.57
2023-05-23T07:18:43.839Z,11.52
2023-05-23T07:21:38.007Z,11.80
2023-05-23T07:24:12.408Z,11.90
2023-05-23T07:26:43.612Z,11.57
2023-05-23T07:32:20.495Z,10.98
2023-05-23T07:34:54.075Z,13.88
2023-05-23T07:37:28.834Z,12.23
2023-05-23T07:43:15.156Z,12.13
2023-05-23T07:45:45.536Z,13.93
2023-05-23T07:48:15.765Z,13.83
2023-05-23T07:50:45.892Z,14.32
2023-05-23T07:53:17.389Z,15.48
2023-05-23T07:55:56.830Z,15.48
2023-05-23T08:05:18.332Z,15.43
2023-05-23T08:07:53.694Z,14.85
2023-05-23T08:26:06.910Z,13.98
2023-05-23T08:31:57.585Z,13.70
2023-05-23T08:52:56.225Z,14.85
2023-05-23T08:58:33.617Z,14.07
2023-05-23T09:01:07.795Z,13.40
2023-05-23T09:04:02.033Z,11.82
2023-05-23T09:06:47.379Z,10.07
2023-05-23T09:09:17.527Z,10.52
2023-05-23T09:15:33.996Z,9.45
2023-05-23T09:18:16.113Z,10.88
2023-05-23T09:24:05.695Z,9.80
2023-05-23T09:26:35.093Z,9.90
2023-05-23T09:29:23.432Z,10.45
2023-05-23T09:31:57.388Z,10.52
2023-05-23T09:34:51.555Z,11.10
2023-05-23T09:37:20.811Z,11.60
2023-05-23T09:40:19.510Z,10.55
2023-05-23T09:42:59.294Z,9.65
2023-05-23T09:45:55.584Z,10.77
2023-05-23T09:48:38.892Z,10.85
2023-05-23T09:51:15.435Z,10.23
2023-05-23T09:54:08.516Z,11.18
2023-05-23T09:56:42.715Z,10.45
2023-05-23T09:59:23.506Z,11.55
2023-05-23T10:01:57.214Z,10.30
2023-05-23T10:04:33.118Z,11.30
2023-05-23T10:07:08.450Z,11.02
2023-05-23T10:09:39.940Z,10.88
2023-05-23T10:12:27.941Z,10.70
2023-05-23T10:15:09.742Z,10.93
2023-05-23T10:17:39.081Z,10.73
2023-05-23T10:20:10.309Z,10.98
2023-05-23T10:22:50.694Z,11.60
2023-05-23T10:25:21.279Z,11.40
2023-05-23T10:28:04.555Z,10.38
2023-05-23T10:30:36.197Z,11.20
2023-05-23T10:33:16.294Z,10.80
2023-05-23T10:36:08.115Z,10.35
2023-05-23T10:38:42.457Z,9.13
2023-05-23T10:41:20.992Z,9.45
2023-05-23T10:44:10.154Z,9.55
2023-05-23T10:47:03.796Z,9.93
2023-05-23T10:52:58.287Z,10.25
2023-05-23T10:55:57.309Z,11.02
2023-05-23T10:58:26.580Z,12.35
2023-05-23T11:01:07.975Z,11.30
2023-05-23T11:03:49.979Z,11.80
2023-05-23T11:06:40.119Z,11.38
2023-05-23T11:09:24.482Z,11.15
2023-05-23T11:12:06.849Z,10.90
2023-05-23T11:14:54.856Z,10.75
2023-05-23T11:17:51.062Z,11.57
2023-05-23T11:20:33.768Z,11.52
2023-05-23T11:23:09.096Z,11.82
2023-05-23T11:26:00.046Z,11.18
2023-05-23T11:28:47.220Z,11.05
2023-05-23T11:31:19.678Z,11.20
2023-05-23T11:33:47.859Z,11.07
2023-05-23T11:36:16.338Z,10.23
2023-05-23T11:39:04.622Z,10.82
2023-05-23T11:41:37.857Z,12.07
2023-05-23T11:44:16.340Z,11.45
2023-05-23T11:47:06.703Z,10.70
2023-05-23T11:49:41.988Z,9.50
2023-05-23T11:52:14.947Z,9.85
2023-05-23T11:55:23.841Z,9.60
2023-05-23T11:57:53.256Z,8.20
2023-05-23T12:00:36.840Z,8.38
2023-05-23T12:06:26.177Z,9.30
2023-05-23T12:08:54.414Z,9.80
2023-05-23T12:11:38.702Z,11.30
2023-05-23T12:14:09.454Z,12.35
2023-05-23T12:16:38.561Z,12.43
2023-05-23T12:19:08.727Z,12.38
2023-05-23T12:22:04.350Z,11.63
2023-05-23T12:24:36.544Z,10.57
2023-05-23T12:27:25.112Z,7.07
2023-05-23T12:30:06.000Z,7.10
2023-05-23T12:32:57.047Z,8.52
2023-05-23T13:23:44.054Z,14.70
2023-05-23T13:50:30.182Z,10.75
2023-05-23T13:56:12.028Z,11.40
2023-05-23T14:01:55.109Z,10.48
2023-05-23T14:07:37.981Z,10.15
2023-05-23T14:13:19.111Z,10.57
2023-05-23T14:19:00.445Z,9.48
2023-05-23T14:24:41.983Z,10.07
2023-05-23T14:30:23.357Z,8.88
2023-05-23T14:36:04.620Z,8.85
2023-05-23T14:42:07.259Z,9.75
2023-05-23T14:45:11.965Z,9.15
2023-05-23T14:50:48.806Z,10.57
2023-05-23T14:56:42.950Z,11.05
2023-05-23T14:59:50.422Z,11.40
2023-05-23T15:05:31.740Z,11.60
2023-05-23T15:11:16.122Z,12.23
2023-05-23T15:16:57.932Z,13.15
2023-05-23T15:19:50.147Z,11.48
2023-05-23T15:25:48.534Z,11.48
2023-05-23T15:31:38.813Z,11.20
2023-05-23T15:37:06.843Z,11.27
2023-05-23T15:39:51.235Z,12.18
2023-05-23T15:54:50.127Z,11.75
2023-05-23T16:00:28.568Z,11.38
2023-05-23T16:06:12.823Z,13.38
2023-05-23T16:15:06.951Z,13.20
2023-05-23T16:20:53.859Z,13.90
2023-05-23T16:26:41.521Z,14.00
2023-05-23T17:35:16.889Z,12.90
2023-05-23T17:38:06.783Z,12.15
2023-05-23T17:41:21.088Z,12.45
2023-05-23T17:47:34.077Z,9.98
2023-05-23T17:50:11.099Z,8.80
2023-05-23T17:56:02.243Z,11.10
2023-05-23T17:59:08.608Z,8.88
2023-05-23T18:01:43.606Z,8.82
2023-05-23T18:07:45.578Z,9.20
2023-05-23T18:29:27.723Z,5.28
2023-05-23T18:35:32.279Z,3.80
2023-05-23T18:44:07.351Z,4.75
2023-05-23T18:59:52.579Z,4.10
2023-05-23T19:05:04.296Z,3.92
2023-05-23T19:07:56.058Z,4.30
2023-05-23T19:14:16.786Z,5.30
2023-05-23T19:23:38.711Z,5.13
2023-05-23T19:29:25.842Z,4.25
2023-05-23T19:31:56.479Z,4.30
2023-05-23T19:34:42.057Z,4.85
2023-05-23T19:40:28.690Z,4.82
2023-05-23T19:46:18.756Z,5.57
2023-05-23T19:52:08.311Z,4.68
2023-05-23T19:57:41.399Z,6.45
2023-05-23T20:00:17.954Z,7.07
2023-05-23T20:06:01.262Z,4.97
2023-05-23T20:11:44.607Z,5.30
2023-05-23T20:14:49.966Z,4.78
2023-05-23T20:27:10.119Z,5.03
2023-05-23T20:29:52.388Z,5.72
2023-05-23T20:35:33.989Z,4.97
2023-05-23T20:41:16.712Z,6.00
2023-05-23T20:47:02.589Z,4.75
2023-05-23T20:49:51.022Z,5.00
2023-05-23T20:55:40.083Z,4.80
2023-05-23T21:04:53.412Z,3.90
2023-05-23T21:10:29.535Z,5.03
2023-05-23T21:16:16.072Z,5.63
2023-05-23T21:21:57.953Z,5.40
2023-05-23T21:24:50.178Z,5.15
2023-05-23T21:30:40.112Z,5.15
2023-05-23T21:36:28.789Z,5.15
2023-05-23T21:42:16.019Z,4.07
2023-05-23T21:44:50.247Z,4.57
2023-05-23T21:50:31.426Z,4.70
2023-05-23T21:53:28.167Z,4.18
2023-05-23T21:59:14.984Z,4.28
2023-05-23T22:05:18.560Z,4.40
2023-05-23T22:10:59.505Z,5.07
2023-05-23T22:16:46.310Z,4.70
2023-05-23T22:19:53.704Z,4.70
2023-05-23T22:25:36.860Z,4.20
2023-05-23T22:31:18.666Z,3.63
2023-05-23T22:37:00.446Z,4.22
2023-05-23T22:39:50.087Z,4.10
2023-05-23T22:42:19.270Z,3.95
2023-05-23T22:55:05.318Z,3.83
2023-05-23T23:10:07.532Z,2.75
2023-05-23T23:12:50.597Z,3.67
2023-05-23T23:18:31.975Z,3.63
2023-05-23T23:24:13.509Z,2.97
2023-05-23T23:29:54.661Z,3.60
2023-05-23T23:35:39.064Z,3.17
2023-05-23T23:41:24.717Z,3.25
2023-05-23T23:47:06.422Z,3.45
2023-05-23T23:58:35.271Z,3.47
